Time;durP1;ratioP1;P1;durP2;ratioP2;P2;SDS_P1;SDS_P2;PMS_P1;PMS_P2;Temp;Humidity;BMP_temperature;BMP_pressure;BME280_temperature;BME280_humidity;BME280_pressure;Samples;Min_cycle;Max_cycle;Signal;HPM_P1;HPM_P2
2023/09/04 00:01:59;;;;;;;4.70;2.90;;;;;;;16.42;100.00;94850.53;5089328;28;20381;-59
2023/09/04 00:04:26;;;;;;;5.22;2.78;;;;;;;16.38;100.00;94840.31;5089025;28;20054;-59
2023/09/04 00:06:52;;;;;;;4.47;2.72;;;;;;;16.38;100.00;94831.25;5088803;28;20566;-59
2023/09/04 00:09:19;;;;;;;4.38;2.88;;;;;;;16.31;100.00;94836.94;5089280;28;20044;-59
2023/09/04 00:11:46;;;;;;;4.07;2.80;;;;;;;16.38;100.00;94836.78;5094942;28;20399;-59
2023/09/04 00:14:15;;;;;;;4.43;2.78;;;;;;;16.37;100.00;94835.22;5109691;27;20476;-59
2023/09/04 00:16:42;;;;;;;4.60;2.85;;;;;;;16.37;100.00;94836.00;5109070;28;21683;-59
2023/09/04 00:19:09;;;;;;;4.97;3.00;;;;;;;16.38;100.00;94837.56;5109375;28;20513;-58
2023/09/04 00:21:35;;;;;;;3.90;2.55;;;;;;;16.40;100.00;94831.59;5109310;28;20047;-58
2023/09/04 00:24:02;;;;;;;5.50;3.73;;;;;;;16.40;100.00;94826.06;5109511;27;20054;-58
2023/09/04 00:26:29;;;;;;;5.32;3.38;;;;;;;16.33;100.00;94826.97;5109101;28;20633;-59
2023/09/04 00:28:56;;;;;;;6.38;3.00;;;;;;;16.14;100.00;94828.59;5091381;28;20046;-58
2023/09/04 00:31:22;;;;;;;4.40;2.78;;;;;;;15.94;100.00;94834.16;5088827;28;20046;-57
2023/09/04 00:33:49;;;;;;;5.00;3.20;;;;;;;15.94;100.00;94836.94;5088932;28;20399;-58
2023/09/04 00:36:16;;;;;;;4.27;2.90;;;;;;;16.08;100.00;94838.63;5088922;28;20040;-57
2023/09/04 00:38:43;;;;;;;5.03;2.90;;;;;;;16.15;100.00;94837.69;5089103;28;20404;-58
2023/09/04 00:41:09;;;;;;;4.15;2.70;;;;;;;16.15;100.00;94832.16;5088659;28;20051;-57
2023/09/04 00:43:36;;;;;;;4.78;2.90;;;;;;;16.10;100.00;94833.44;5088681;28;20050;-58
2023/09/04 00:46:05;;;;;;;4.60;2.95;;;;;;;16.11;100.00;94828.66;5088649;28;20054;-58
2023/09/04 00:48:33;;;;;;;4.77;3.00;;;;;;;16.13;100.00;94829.78;5088615;28;20046;-57
2023/09/04 00:51:01;;;;;;;7.10;2.80;;;;;;;16.09;100.00;94825.56;5087419;28;20052;-57
2023/09/04 00:53:29;;;;;;;5.72;2.80;;;;;;;16.11;100.00;94823.91;5088435;28;20438;-58
2023/09/04 00:55:57;;;;;;;4.43;3.00;;;;;;;16.14;100.00;94819.53;5088749;28;20040;-57
2023/09/04 00:58:24;;;;;;;6.22;2.90;;;;;;;16.11;100.00;94825.91;5088557;28;20435;-57
2023/09/04 01:00:52;;;;;;;4.70;2.80;;;;;;;16.12;100.00;94824.72;5088744;28;20073;-58
2023/09/04 01:03:20;;;;;;;4.38;2.67;;;;;;;16.13;100.00;94815.19;5088501;28;20403;-57
2023/09/04 01:05:47;;;;;;;4.45;2.80;;;;;;;16.14;100.00;94816.75;5088684;28;20036;-58
2023/09/04 01:08:14;;;;;;;4.10;2.70;;;;;;;16.14;100.00;94819.53;5088442;28;20052;-58
2023/09/04 01:11:04;;;;;;;4.40;2.60;;;;;;;16.02;100.00;94811.84;5088085;28;21781;-58
2023/09/04 01:13:34;;;;;;;4.47;2.90;;;;;;;15.97;100.00;94813.16;5082438;28;20046;-58
2023/09/04 01:16:01;;;;;;;4.35;2.80;;;;;;;15.93;100.00;94813.22;5088195;28;20044;-58
2023/09/04 01:18:28;;;;;;;4.85;2.88;;;;;;;15.85;100.00;94811.03;5088144;28;20097;-58
2023/09/04 01:21:05;;;;;;;4.82;3.20;;;;;;;15.88;100.00;94802.66;5088323;28;20044;-57
2023/09/04 01:23:32;;;;;;;4.65;2.90;;;;;;;15.89;100.00;94811.75;5088244;28;20050;-57
2023/09/04 01:26:25;;;;;;;4.40;2.83;;;;;;;15.85;100.00;94813.81;5088244;28;20052;-57
2023/09/04 01:29:13;;;;;;;4.55;2.88;;;;;;;15.39;100.00;94813.50;5087374;28;20752;-58
2023/09/04 01:31:54;;;;;;;4.35;2.92;;;;;;;15.36;100.00;94806.06;5088302;28;20040;-58
2023/09/04 01:34:34;;;;;;;4.30;2.80;;;;;;;15.31;100.00;94810.13;5088085;28;20036;-58
2023/09/04 01:37:01;;;;;;;5.32;2.80;;;;;;;15.25;100.00;94802.72;5088106;28;20048;-58
2023/09/04 01:39:29;;;;;;;4.70;2.93;;;;;;;15.32;100.00;94797.84;5087885;28;20050;-57
2023/09/04 01:41:56;;;;;;;4.20;2.80;;;;;;;15.40;100.00;94795.72;5088225;28;20044;-58
2023/09/04 01:44:25;;;;;;;4.60;3.17;;;;;;;15.40;100.00;94794.94;5087936;28;20040;-58
2023/09/04 01:46:52;;;;;;;4.50;3.00;;;;;;;15.31;100.00;94795.50;5088065;28;20043;-58
2023/09/04 01:49:18;;;;;;;4.97;2.88;;;;;;;15.23;100.00;94794.88;5088097;28;20044;-57
2023/09/04 01:51:45;;;;;;;5.27;2.67;;;;;;;15.23;100.00;94799.59;5088494;28;20040;-57
2023/09/04 01:54:12;;;;;;;4.22;2.80;;;;;;;15.23;100.00;94803.16;5092006;28;20048;-56
2023/09/04 01:56:39;;;;;;;5.63;3.25;;;;;;;15.33;100.00;94804.94;5091768;28;20100;-57
2023/09/04 01:59:06;;;;;;;5.00;3.03;;;;;;;15.40;100.00;94798.50;5091865;28;20621;-59
2023/09/04 02:01:32;;;;;;;5.50;3.38;;;;;;;15.17;100.00;94802.06;5091576;28;20040;-57
2023/09/04 02:03:59;;;;;;;4.07;2.80;;;;;;;15.23;100.00;94797.63;5091790;28;20066;-58
2023/09/04 02:06:28;;;;;;;4.90;2.97;;;;;;;15.21;100.00;94790.94;5091321;28;20048;-57
2023/09/04 02:08:55;;;;;;;4.65;3.10;;;;;;;15.21;100.00;94797.25;5091538;28;20039;-57
2023/09/04 02:11:21;;;;;;;5.75;3.20;;;;;;;15.22;100.00;94790.53;5091601;28;20040;-57
2023/09/04 02:13:49;;;;;;;5.10;3.30;;;;;;;15.28;100.00;94802.66;5091802;28;20036;-57
2023/09/04 02:16:16;;;;;;;4.73;3.20;;;;;;;15.38;100.00;94787.84;5091222;28;20040;-57
2023/09/04 02:18:43;;;;;;;4.90;3.30;;;;;;;15.44;100.00;94790.91;5091793;28;20887;-58
2023/09/04 02:21:09;;;;;;;4.82;3.33;;;;;;;15.51;100.00;94790.75;5091415;28;20056;-58
2023/09/04 02:23:36;;;;;;;5.93;3.50;;;;;;;15.53;100.00;94787.56;5091209;28;20432;-57
2023/09/04 02:26:03;;;;;;;5.22;3.55;;;;;;;15.53;100.00;94788.34;5091249;28;20052;-57
2023/09/04 02:28:30;;;;;;;5.37;3.50;;;;;;;15.50;100.00;94791.97;5091042;28;20088;-57
2023/09/04 02:30:57;;;;;;;4.85;3.38;;;;;;;15.56;100.00;94784.72;5091237;28;20046;-58
2023/09/04 02:33:24;;;;;;;4.78;3.40;;;;;;;15.55;100.00;94787.91;5091159;28;20040;-58
2023/09/04 02:35:52;;;;;;;5.90;3.33;;;;;;;15.57;100.00;94786.28;5091569;28;20044;-58
2023/09/04 02:38:19;;;;;;;4.85;3.33;;;;;;;15.56;100.00;94787.47;5091083;28;20054;-57
2023/09/04 02:40:46;;;;;;;5.13;3.60;;;;;;;15.54;100.00;94787.13;5091477;28;20307;-58
2023/09/04 02:43:12;;;;;;;4.78;3.38;;;;;;;15.54;100.00;94787.13;5090925;28;20047;-58
2023/09/04 02:45:40;;;;;;;5.00;3.40;;;;;;;15.49;100.00;94790.41;5090950;28;20039;-57
2023/09/04 02:48:07;;;;;;;5.55;3.67;;;;;;;15.54;100.00;94783.59;5090979;28;20104;-58
2023/09/04 02:50:34;;;;;;;5.97;3.85;;;;;;;15.49;100.00;94784.88;5090741;28;20044;-58
2023/09/04 02:53:01;;;;;;;5.33;3.20;;;;;;;15.47;100.00;94784.50;5091100;28;20054;-58
2023/09/04 02:55:28;;;;;;;6.55;3.40;;;;;;;15.09;100.00;94787.63;5090736;28;20074;-57
2023/09/04 02:57:55;;;;;;;6.25;3.17;;;;;;;15.07;100.00;94786.47;5090679;28;20054;-58
2023/09/04 03:00:23;;;;;;;4.50;3.08;;;;;;;15.03;100.00;94788.50;5090300;28;20044;-58
2023/09/04 03:02:50;;;;;;;5.25;3.70;;;;;;;15.26;100.00;94780.19;5090868;28;20044;-58
2023/09/04 03:05:17;;;;;;;4.87;3.40;;;;;;;15.37;100.00;94783.53;5089931;28;20041;-57
2023/09/04 03:07:44;;;;;;;5.15;3.38;;;;;;;15.40;100.00;94781.88;5090925;28;20403;-58
2023/09/04 03:10:11;;;;;;;5.47;3.30;;;;;;;15.38;100.00;94784.31;5090470;28;20051;-57
2023/09/04 03:12:37;;;;;;;4.63;3.20;;;;;;;14.80;100.00;94794.88;5090346;28;20043;-58
2023/09/04 03:15:06;;;;;;;6.70;3.30;;;;;;;14.78;100.00;94796.06;5090425;28;20159;-58
2023/09/04 03:17:34;;;;;;;5.30;3.60;;;;;;;14.73;100.00;94799.31;5090184;28;20048;-57
2023/09/04 03:20:05;;;;;;;4.97;3.50;;;;;;;14.68;100.00;94794.25;5090352;28;20097;-58
2023/09/04 03:22:32;;;;;;;9.48;5.88;;;;;;;14.62;100.00;94792.41;5089786;28;20047;-58
2023/09/04 03:24:59;;;;;;;8.75;4.10;;;;;;;14.68;100.00;94791.50;5089933;28;20404;-57
2023/09/04 03:27:27;;;;;;;6.13;4.10;;;;;;;14.69;100.00;94798.59;5089726;28;20040;-57
2023/09/04 03:29:54;;;;;;;5.47;3.40;;;;;;;14.86;100.00;94788.41;5090498;28;20040;-58
2023/09/04 03:32:20;;;;;;;5.80;3.33;;;;;;;14.98;100.00;94793.34;5089993;28;20056;-59
2023/09/04 03:34:47;;;;;;;5.95;3.55;;;;;;;15.04;100.00;94788.09;5090218;28;20052;-57
2023/09/04 03:37:14;;;;;;;5.93;3.63;;;;;;;15.09;100.00;94782.09;5090044;28;20781;-57
2023/09/04 03:39:40;;;;;;;6.07;3.70;;;;;;;15.08;100.00;94783.28;5089303;28;20079;-57
2023/09/04 03:42:07;;;;;;;5.67;3.30;;;;;;;15.13;100.00;94788.34;5089809;28;20044;-58
2023/09/04 03:44:34;;;;;;;5.43;3.60;;;;;;;15.16;100.00;94789.47;5089352;28;20435;-58
2023/09/04 03:47:02;;;;;;;5.88;3.20;;;;;;;15.17;100.00;94775.22;5089834;28;20731;-57
2023/09/04 03:49:29;;;;;;;5.85;3.42;;;;;;;15.06;100.00;94787.69;5089467;28;20050;-57
2023/09/04 03:51:56;;;;;;;5.97;3.60;;;;;;;15.15;100.00;94774.88;5089736;28;20041;-57
2023/09/04 03:54:22;;;;;;;5.17;3.23;;;;;;;15.13;100.00;94793.88;5089535;28;20036;-58
2023/09/04 03:56:50;;;;;;;6.55;3.75;;;;;;;14.97;100.00;94786.25;5088449;28;20408;-57
2023/09/04 03:59:17;;;;;;;6.40;3.67;;;;;;;14.85;100.00;94797.94;5089180;28;20066;-58
2023/09/04 04:01:43;;;;;;;5.88;3.78;;;;;;;14.87;100.00;94794.72;5089815;28;20050;-57
2023/09/04 04:04:13;;;;;;;5.90;3.30;;;;;;;14.87;100.00;94801.06;5089335;28;20042;-58
2023/09/04 04:06:40;;;;;;;5.40;3.67;;;;;;;14.92;100.00;94792.25;5087477;28;21093;-58
2023/09/04 04:09:07;;;;;;;5.25;3.63;;;;;;;15.03;100.00;94796.81;5089510;28;20051;-58
2023/09/04 04:11:35;;;;;;;5.70;3.33;;;;;;;15.07;100.00;94797.53;5089180;28;20489;-57
2023/09/04 04:14:03;;;;;;;6.05;3.83;;;;;;;15.04;100.00;94798.38;5089511;28;20054;-57
2023/09/04 04:16:34;;;;;;;6.05;4.07;;;;;;;15.00;100.00;94803.97;5088366;28;20044;-57
2023/09/04 04:19:01;;;;;;;7.80;4.83;;;;;;;14.74;100.00;94803.63;5089231;28;20397;-58
2023/09/04 04:21:28;;;;;;;6.30;3.97;;;;;;;14.81;100.00;94804.69;5087440;28;20052;-58
2023/09/04 04:23:55;;;;;;;8.90;5.65;;;;;;;14.70;100.00;94807.66;5089183;28;20089;-57
2023/09/04 04:26:22;;;;;;;8.10;5.05;;;;;;;14.58;100.00;94797.97;5088773;28;20488;-57
2023/09/04 04:28:48;;;;;;;9.32;5.15;;;;;;;14.57;100.00;94802.72;5088979;28;20044;-57
2023/09/04 04:31:15;;;;;;;7.20;4.53;;;;;;;14.57;100.00;94805.50;5088933;28;20474;-58
2023/09/04 04:33:42;;;;;;;7.10;4.50;;;;;;;14.54;100.00;94811.03;5088327;28;20836;-57
2023/09/04 04:36:09;;;;;;;5.80;4.20;;;;;;;14.48;100.00;94809.97;5088734;28;20381;-57
2023/09/04 04:38:35;;;;;;;6.72;3.97;;;;;;;14.41;100.00;94810.06;5093835;28;20669;-58
2023/09/04 04:41:02;;;;;;;6.75;4.03;;;;;;;14.24;100.00;94812.69;5106956;28;20484;-57
2023/09/04 04:43:29;;;;;;;6.57;4.00;;;;;;;14.46;100.00;94795.78;5108997;28;20052;-58
2023/09/04 04:45:56;;;;;;;5.45;3.80;;;;;;;14.53;100.00;94804.75;5109093;28;20044;-58
2023/09/04 04:48:23;;;;;;;5.68;3.78;;;;;;;14.56;100.00;94806.69;5108825;27;20040;-57
2023/09/04 04:50:50;;;;;;;6.22;3.70;;;;;;;14.57;100.00;94801.97;5109143;28;20460;-57
2023/09/04 04:53:19;;;;;;;5.45;3.60;;;;;;;14.64;100.00;94804.59;5108437;28;20046;-58
2023/09/04 04:55:46;;;;;;;6.27;3.90;;;;;;;14.70;100.00;94804.91;5109052;28;20044;-58
2023/09/04 04:58:13;;;;;;;5.53;3.72;;;;;;;14.74;100.00;94795.34;5108872;28;20685;-58
2023/09/04 05:00:40;;;;;;;5.53;3.60;;;;;;;14.77;100.00;94808.31;5100295;28;20047;-57
2023/09/04 05:03:07;;;;;;;7.40;4.00;;;;;;;14.77;100.00;94807.53;5066951;28;20055;-57
2023/09/04 05:05:34;;;;;;;5.90;3.75;;;;;;;14.84;100.00;94810.16;5065895;28;20053;-58
2023/09/04 05:08:01;;;;;;;5.87;4.00;;;;;;;14.87;100.00;94811.31;5068068;28;20044;-57
2023/09/04 05:10:28;;;;;;;5.35;3.75;;;;;;;14.90;100.00;94813.25;5072149;28;20052;-57
2023/09/04 05:12:54;;;;;;;6.28;4.03;;;;;;;14.95;100.00;94805.25;5098654;28;20043;-58
2023/09/04 05:15:21;;;;;;;6.10;4.50;;;;;;;15.04;100.00;94809.44;5108292;28;20046;-58
2023/09/04 05:17:48;;;;;;;6.07;4.03;;;;;;;15.02;100.00;94803.56;5109060;28;20449;-58
2023/09/04 05:20:15;;;;;;;8.83;5.30;;;;;;;14.97;100.00;94802.84;5108748;28;20095;-57
2023/09/04 05:22:41;;;;;;;7.28;4.47;;;;;;;15.09;100.00;94806.19;5106739;28;20062;-57
2023/09/04 05:25:09;;;;;;;6.78;4.70;;;;;;;15.15;100.00;94810.00;5108627;28;20051;-58
2023/09/04 05:27:35;;;;;;;6.13;4.07;;;;;;;15.16;100.00;94795.78;5103315;28;20050;-58
2023/09/04 05:30:03;;;;;;;6.22;4.03;;;;;;;15.18;100.00;94790.59;5092340;28;20113;-57
2023/09/04 05:32:29;;;;;;;8.03;4.30;;;;;;;15.13;100.00;94801.34;5092302;28;20044;-58
2023/09/04 05:34:56;;;;;;;6.20;4.03;;;;;;;15.16;100.00;94795.00;5092368;28;20061;-57
2023/09/04 05:37:24;;;;;;;6.55;4.20;;;;;;;15.27;100.00;94792.81;5091669;28;20120;-57
2023/09/04 05:39:51;;;;;;;6.32;4.28;;;;;;;15.23;100.00;94783.00;5092563;28;20043;-57
2023/09/04 05:42:17;;;;;;;7.68;4.13;;;;;;;15.25;100.00;94789.69;5091703;28;20040;-57
2023/09/04 05:44:44;;;;;;;6.23;4.07;;;;;;;15.37;100.00;94785.50;5092608;28;20510;-58
2023/09/04 05:47:11;;;;;;;5.80;3.80;;;;;;;15.44;100.00;94790.13;5091924;28;20082;-58
2023/09/04 05:49:38;;;;;;;6.45;3.95;;;;;;;15.45;100.00;94786.91;5091731;28;20046;-58
2023/09/04 05:52:05;;;;;;;5.85;3.90;;;;;;;15.46;100.00;94790.47;5092013;28;20052;-58
2023/09/04 05:54:31;;;;;;;6.72;4.28;;;;;;;15.58;100.00;94793.38;5091582;28;20040;-58
2023/09/04 05:56:58;;;;;;;6.10;4.10;;;;;;;15.61;100.00;94800.03;5092097;28;20040;-59
2023/09/04 05:59:26;;;;;;;5.88;3.58;;;;;;;15.76;100.00;94803.31;5091572;28;20519;-58
2023/09/04 06:01:52;;;;;;;5.68;3.70;;;;;;;15.87;100.00;94797.56;5092107;28;20035;-58
2023/09/04 06:04:19;;;;;;;5.95;3.72;;;;;;;15.89;100.00;94797.91;5097480;28;20554;-57
2023/09/04 06:06:50;;;;;;;6.40;3.75;;;;;;;15.95;100.00;94798.97;5112294;27;20039;-58
2023/09/04 06:09:17;;;;;;;5.90;4.17;;;;;;;15.95;100.00;94794.19;5111629;27;20054;-57
2023/09/04 06:11:44;;;;;;;6.90;3.90;;;;;;;16.04;100.00;94792.84;5112234;27;20035;-58
2023/09/04 06:14:11;;;;;;;5.10;3.70;;;;;;;16.14;100.00;94784.28;5110543;28;20040;-57
2023/09/04 06:16:38;;;;;;;5.68;3.75;;;;;;;16.13;100.00;94779.94;5111836;28;20041;-58
2023/09/04 06:19:04;;;;;;;6.90;3.70;;;;;;;16.26;100.00;94780.06;5111927;28;20031;-58
2023/09/04 06:21:31;;;;;;;6.10;4.00;;;;;;;16.20;100.00;94792.88;5111449;27;20043;-58
2023/09/04 06:23:58;;;;;;;5.25;3.63;;;;;;;16.21;100.00;94783.34;5111897;27;20415;-57
2023/09/04 06:26:25;;;;;;;5.53;3.72;;;;;;;16.40;100.00;94792.00;5111222;28;20663;-58
2023/09/04 06:28:51;;;;;;;5.50;3.90;;;;;;;16.34;100.00;94805.63;5094534;28;20043;-58
2023/09/04 06:31:18;;;;;;;6.65;3.95;;;;;;;16.47;100.00;94798.16;5090944;28;20101;-58
2023/09/04 06:33:45;;;;;;;5.57;3.63;;;;;;;16.48;100.00;94802.50;5091566;28;20047;-58
2023/09/04 06:36:12;;;;;;;5.50;3.80;;;;;;;16.58;100.00;94807.00;5090985;28;20051;-57
2023/09/04 06:38:38;;;;;;;5.47;3.70;;;;;;;16.66;100.00;94802.06;5090176;28;20044;-57
2023/09/04 06:41:05;;;;;;;5.38;3.70;;;;;;;16.89;100.00;94808.66;5090945;28;20659;-58
2023/09/04 06:43:32;;;;;;;5.10;3.63;;;;;;;17.07;100.00;94808.22;5090744;28;20048;-58
2023/09/04 06:46:00;;;;;;;5.60;3.70;;;;;;;18.21;100.00;94795.91;5091312;28;20040;-58
2023/09/04 06:48:27;;;;;;;5.13;3.47;;;;;;;20.86;100.00;94796.09;5090620;28;20036;-58
2023/09/04 06:50:55;;;;;;;4.40;3.15;;;;;;;22.48;100.00;94795.41;5091132;28;20047;-59
2023/09/04 06:53:21;;;;;;;5.55;3.20;;;;;;;22.36;100.00;94785.19;5090517;28;20408;-58
2023/09/04 06:55:48;;;;;;;5.03;3.40;;;;;;;22.56;98.37;94799.41;5089674;28;20044;-58
2023/09/04 06:58:15;;;;;;;4.60;3.50;;;;;;;23.62;89.55;94800.13;5090791;28;20052;-58
2023/09/04 07:00:42;;;;;;;4.85;3.40;;;;;;;25.07;81.92;94785.47;5077761;28;21500;-58
2023/09/04 07:03:09;;;;;;;4.63;3.25;;;;;;;25.19;79.57;94786.41;5070421;28;20059;-58
2023/09/04 07:05:36;;;;;;;6.20;3.28;;;;;;;26.67;72.21;94788.25;5069893;28;20050;-57
2023/09/04 07:08:04;;;;;;;4.70;3.47;;;;;;;25.83;76.53;94793.06;5070385;28;20040;-57
2023/09/04 07:10:31;;;;;;;3.90;3.07;;;;;;;28.64;64.30;94787.47;5066181;28;20371;-56
2023/09/04 07:13:02;;;;;;;4.25;3.38;;;;;;;23.77;77.11;94808.63;5075284;28;20485;-58
2023/09/04 07:15:28;;;;;;;5.45;3.30;;;;;;;24.53;82.50;94785.72;5069784;28;20040;-58
2023/09/04 07:17:58;;;;;;;5.35;3.42;;;;;;;25.12;75.69;94791.16;5070270;28;20052;-58
2023/09/04 07:20:27;;;;;;;4.40;3.35;;;;;;;25.23;81.18;94784.19;5068345;28;20041;-59
2023/09/04 07:22:53;;;;;;;4.63;3.10;;;;;;;26.73;68.18;94793.16;5070413;28;20063;-58
2023/09/04 07:25:40;;;;;;;3.95;3.33;;;;;;;26.56;72.36;94793.78;5069799;28;20043;-59
2023/09/04 07:28:07;;;;;;;17.13;6.18;;;;;;;27.04;67.96;94790.25;5075785;28;20048;-58
2023/09/04 07:30:33;;;;;;;10.13;4.68;;;;;;;27.95;61.61;94787.88;5069464;28;20050;-59
2023/09/04 07:33:00;;;;;;;12.52;5.00;;;;;;;27.34;63.44;94789.19;5070240;28;20415;-59
2023/09/04 07:35:28;;;;;;;4.87;3.50;;;;;;;26.08;67.71;94783.91;5069299;28;20462;-58
2023/09/04 07:37:56;;;;;;;8.35;4.25;;;;;;;25.72;72.86;94793.72;5069898;28;20036;-58
2023/09/04 07:40:23;;;;;;;5.45;3.38;;;;;;;26.20;72.04;94786.78;5069389;28;20048;-57
2023/09/04 07:42:50;;;;;;;4.30;2.90;;;;;;;27.43;65.33;94786.91;5069867;28;20060;-58
2023/09/04 07:45:17;;;;;;;3.90;2.90;;;;;;;28.85;58.91;94788.72;5068962;28;20152;-57
2023/09/04 07:47:43;;;;;;;4.00;3.00;;;;;;;25.80;67.68;94794.06;5069528;28;20040;-57
2023/09/04 07:50:11;;;;;;;3.92;2.97;;;;;;;28.04;62.66;94788.41;5068206;28;20049;-59
2023/09/04 07:52:38;;;;;;;5.22;2.90;;;;;;;28.88;56.12;94787.69;5068490;28;20040;-59
2023/09/04 07:55:08;;;;;;;4.15;2.60;;;;;;;28.26;57.95;94786.91;5067999;28;20412;-58
2023/09/04 07:57:35;;;;;;;3.80;2.65;;;;;;;30.09;56.87;94789.63;5051025;28;20053;-59
2023/09/04 08:00:03;;;;;;;4.67;3.00;;;;;;;29.87;53.38;94789.22;5049394;28;20551;-60
2023/09/04 08:02:29;;;;;;;3.95;3.00;;;;;;;25.06;66.71;94781.91;5047531;28;20698;-58
2023/09/04 08:04:57;;;;;;;3.75;3.05;;;;;;;23.99;79.26;94807.50;5048921;28;20409;-58
2023/09/04 08:07:24;;;;;;;3.90;3.05;;;;;;;25.69;75.02;94783.44;5048923;28;20409;-57
2023/09/04 08:09:51;;;;;;;5.05;3.10;;;;;;;26.43;68.75;94793.41;5049609;28;20714;-58
2023/09/04 08:12:18;;;;;;;5.50;2.93;;;;;;;25.57;72.74;94784.59;5048884;28;20041;-57
2023/09/04 08:14:46;;;;;;;4.78;3.00;;;;;;;25.16;75.29;94793.78;5048337;28;20040;-58
2023/09/04 08:17:13;;;;;;;5.53;3.25;;;;;;;24.79;77.88;94787.88;5049245;28;20041;-58
2023/09/04 08:19:39;;;;;;;5.97;3.30;;;;;;;23.58;87.19;94788.34;5048841;28;20037;-57
2023/09/04 08:22:06;;;;;;;4.00;3.00;;;;;;;26.24;71.94;94776.88;5049309;28;20344;-58
2023/09/04 08:24:33;;;;;;;3.67;2.63;;;;;;;26.81;71.09;94795.00;5048852;28;20052;-59
2023/09/04 08:27:00;;;;;;;4.28;2.80;;;;;;;28.90;61.98;94778.72;5052595;28;20049;-59
2023/09/04 08:29:27;;;;;;;3.42;2.45;;;;;;;28.79;59.25;94778.72;5088946;28;20058;-58
2023/09/04 08:31:53;;;;;;;5.05;2.80;;;;;;;26.08;74.32;94785.94;5071230;28;20489;-58
2023/09/04 08:34:20;;;;;;;3.88;3.00;;;;;;;27.42;63.73;94776.91;5068377;28;20052;-58
2023/09/04 08:36:47;;;;;;;5.10;3.27;;;;;;;25.21;68.46;94793.13;5068679;28;20043;-59
2023/09/04 08:39:13;;;;;;;3.20;2.50;;;;;;;29.33;59.21;94784.00;5068970;28;20058;-58
2023/09/04 08:41:41;;;;;;;3.10;2.33;;;;;;;32.13;48.96;94770.09;5068759;28;20045;-58
2023/09/04 08:44:09;;;;;;;4.20;2.55;;;;;;;31.31;47.81;94768.50;5068812;28;20446;-59
2023/09/04 08:46:37;;;;;;;3.70;2.58;;;;;;;29.68;50.18;94774.13;5068417;28;20044;-59
2023/09/04 08:49:04;;;;;;;3.30;2.70;;;;;;;29.50;51.65;94769.03;5068736;28;20044;-60
2023/09/04 08:51:31;;;;;;;3.97;2.50;;;;;;;28.35;54.22;94774.59;5068489;28;20416;-58
2023/09/04 08:53:58;;;;;;;3.40;2.80;;;;;;;25.40;62.23;94767.53;5068721;28;20047;-58
2023/09/04 08:56:29;;;;;;;3.70;2.33;;;;;;;27.52;58.97;94774.66;5068235;28;20041;-58
2023/09/04 08:58:56;;;;;;;4.30;2.65;;;;;;;27.61;54.75;94785.72;5068609;28;20044;-58
2023/09/04 09:01:26;;;;;;;3.30;2.13;;;;;;;30.99;49.72;94780.47;5067580;28;20048;-59
2023/09/04 09:03:53;;;;;;;3.00;2.25;;;;;;;29.27;48.32;94772.72;5068512;28;20052;-58
2023/09/04 09:06:20;;;;;;;3.33;2.42;;;;;;;27.93;50.99;94768.66;5067732;28;20052;-58
2023/09/04 09:08:50;;;;;;;4.00;2.40;;;;;;;27.63;51.63;94763.41;5068635;28;20040;-58
2023/09/04 09:11:21;;;;;;;3.60;2.50;;;;;;;25.28;60.98;94781.44;5068005;28;20044;-59
2023/09/04 09:13:48;;;;;;;3.67;2.47;;;;;;;28.00;50.54;94782.25;5068832;28;20043;-58
2023/09/04 09:16:19;;;;;;;3.40;2.40;;;;;;;27.73;49.62;94766.78;5068684;28;20089;-58
2023/09/04 09:18:48;;;;;;;3.60;2.38;;;;;;;26.37;54.81;94772.88;5067724;28;20809;-59
2023/09/04 09:21:32;;;;;;;3.85;2.40;;;;;;;28.31;49.44;94774.84;5068486;28;20052;-59
2023/09/04 09:24:13;;;;;;;3.47;2.30;;;;;;;29.08;47.25;94772.50;5067141;28;20779;-59
2023/09/04 09:26:48;;;;;;;4.30;2.20;;;;;;;29.82;44.96;94760.94;5068342;28;20045;-59
2023/09/04 09:29:17;;;;;;;3.03;2.10;;;;;;;30.88;41.85;94757.88;5048362;28;20052;-59
2023/09/04 09:31:45;;;;;;;3.28;2.08;;;;;;;30.65;42.87;94766.56;5047563;28;20847;-59
2023/09/04 09:34:13;;;;;;;3.53;2.30;;;;;;;29.21;45.30;94768.38;5048321;28;20401;-59
2023/09/04 09:36:40;;;;;;;3.97;2.40;;;;;;;31.65;40.12;94751.88;5047764;28;20037;-59
2023/09/04 09:39:08;;;;;;;3.33;2.10;;;;;;;28.99;43.30;94769.94;5048379;28;20391;-59
2023/09/04 09:41:36;;;;;;;3.25;2.22;;;;;;;28.98;45.43;94765.59;5047921;28;20052;-59
2023/09/04 09:44:03;;;;;;;4.28;2.22;;;;;;;31.34;40.70;94758.94;5048588;28;20049;-60
2023/09/04 09:46:35;;;;;;;3.90;2.50;;;;;;;27.93;46.32;94759.41;5048037;28;20055;-59
2023/09/04 09:49:02;;;;;;;3.30;2.30;;;;;;;30.41;40.62;94761.63;5048294;28;20045;-59
2023/09/04 09:51:32;;;;;;;3.00;2.27;;;;;;;31.71;40.14;94748.97;5047775;28;20059;-59
2023/09/04 09:53:59;;;;;;;4.63;2.47;;;;;;;31.53;39.30;94742.75;5048216;28;20037;-60
2023/09/04 09:56:27;;;;;;;3.78;2.30;;;;;;;33.37;37.14;94750.22;5047558;28;20049;-59
2023/09/04 09:58:56;;;;;;;4.72;2.38;;;;;;;32.79;36.51;94746.84;5048324;28;20139;-60
2023/09/04 10:01:27;;;;;;;3.72;2.10;;;;;;;34.26;35.34;94738.25;5047636;28;20037;-60
2023/09/04 10:03:56;;;;;;;3.00;2.30;;;;;;;32.17;33.82;94747.06;5048423;28;20592;-59
2023/09/04 10:06:23;;;;;;;3.55;2.25;;;;;;;31.51;37.19;94738.91;5047208;28;20041;-59
2023/09/04 10:08:52;;;;;;;3.67;2.10;;;;;;;35.56;31.79;94740.66;5048143;28;20290;-59
2023/09/04 10:11:19;;;;;;;3.35;2.20;;;;;;;31.17;34.68;94748.56;5047417;28;20048;-59
2023/09/04 10:14:01;;;;;;;3.22;2.30;;;;;;;30.60;35.32;94731.31;5049701;28;20095;-59
2023/09/04 10:16:42;;;;;;;3.30;2.20;;;;;;;29.27;36.62;94743.69;5051325;28;20047;-59
2023/09/04 10:19:12;;;;;;;4.82;2.30;;;;;;;31.29;34.17;94757.72;5051533;28;20053;-60
2023/09/04 10:21:43;;;;;;;3.13;2.17;;;;;;;31.85;32.36;94720.16;5051066;28;20460;-60
2023/09/04 10:24:16;;;;;;;3.53;2.25;;;;;;;30.55;34.14;94728.56;5051107;28;20037;-59
2023/09/04 10:26:53;;;;;;;4.25;2.40;;;;;;;29.52;34.94;94721.22;5050709;28;20871;-59
2023/09/04 10:29:27;;;;;;;3.40;2.20;;;;;;;30.53;34.21;94712.06;5050777;28;20051;-59
2023/09/04 10:31:55;;;;;;;3.67;2.35;;;;;;;30.11;34.56;94719.84;5051498;28;20404;-59
2023/09/04 10:34:22;;;;;;;3.65;2.10;;;;;;;30.37;34.42;94713.00;5050845;28;20051;-59
2023/09/04 10:36:49;;;;;;;4.38;2.47;;;;;;;32.04;32.51;94703.09;5051342;28;20045;-59
2023/09/04 10:39:16;;;;;;;3.20;2.20;;;;;;;29.01;34.12;94707.25;5051200;28;20052;-59
2023/09/04 10:41:43;;;;;;;3.27;2.30;;;;;;;28.70;34.60;94705.56;5048915;28;20041;-59
2023/09/04 10:44:12;;;;;;;3.20;2.30;;;;;;;29.77;34.73;94688.97;5051171;28;20090;-59
2023/09/04 10:46:55;;;;;;;4.05;2.35;;;;;;;30.80;32.90;94695.34;5050950;28;20051;-59
2023/09/04 10:49:31;;;;;;;3.50;2.30;;;;;;;31.33;32.36;94684.44;5050418;28;20041;-59
2023/09/04 10:51:57;;;;;;;3.80;2.67;;;;;;;28.12;36.70;94692.72;5051093;28;20043;-59
2023/09/04 10:54:25;;;;;;;4.03;2.30;;;;;;;31.49;31.61;94685.53;5050329;28;20048;-59
2023/09/04 10:56:55;;;;;;;3.53;2.60;;;;;;;29.30;33.33;94677.63;5050937;28;20041;-60
2023/09/04 10:59:22;;;;;;;3.63;2.40;;;;;;;29.28;34.07;94669.66;5050293;28;20060;-60
2023/09/04 11:01:49;;;;;;;3.40;2.40;;;;;;;30.77;32.43;94673.75;5050961;28;20052;-60
2023/09/04 11:04:46;;;;;;;4.80;2.40;;;;;;;31.61;31.18;94667.09;5050046;28;20405;-59
2023/09/04 11:07:15;;;;;;;5.03;2.20;;;;;;;30.07;33.06;94657.88;5037513;28;20045;-59
2023/09/04 11:09:42;;;;;;;4.13;2.47;;;;;;;29.59;33.18;94661.28;5049733;28;20413;-60
2023/09/04 11:12:18;;;;;;;4.22;2.30;;;;;;;29.05;35.29;94654.81;5050333;28;20049;-59
2023/09/04 11:14:46;;;;;;;3.67;2.47;;;;;;;28.31;36.21;94663.97;5049894;28;20094;-58
2023/09/04 11:17:16;;;;;;;3.63;2.50;;;;;;;29.21;35.51;94656.06;5050651;28;20041;-58
2023/09/04 11:19:46;;;;;;;4.43;2.60;;;;;;;28.38;35.50;94657.81;5049553;28;21117;-59
2023/09/04 11:22:19;;;;;;;5.68;2.60;;;;;;;28.96;35.61;94652.31;5050342;28;20037;-59
2023/09/04 11:24:46;;;;;;;3.50;2.33;;;;;;;26.94;39.37;94658.59;5049559;28;20051;-59
2023/09/04 11:27:13;;;;;;;3.45;2.45;;;;;;;26.61;40.81;94654.34;5056757;28;20416;-58
2023/09/04 11:29:40;;;;;;;4.05;2.70;;;;;;;26.33;41.33;94662.59;5089979;27;20044;-58
2023/09/04 11:32:07;;;;;;;3.90;2.73;;;;;;;25.36;44.07;94657.41;5090638;27;20058;-59
2023/09/04 11:34:35;;;;;;;4.20;2.75;;;;;;;25.31;44.14;94659.66;5090197;27;20043;-58